sensor_id;sensor_type;location;lat;lon;timestamp;P1;durP1;ratioP1;P2;durP2;ratioP2
11034;SDS011;5571;48.110;-1.706;2022-11-20T00:01:36;9.33;;;5.80;;
11034;SDS011;5571;48.110;-1.706;2022-11-20T00:04:01;13.37;;;6.17;;
11034;SDS011;5571;48.110;-1.706;2022-11-20T00:06:28;11.00;;;5.70;;
11034;SDS011;5571;48.110;-1.706;2022-11-20T00:08:54;8.60;;;5.07;;
11034;SDS011;5571;48.110;-1.706;2022-11-20T00:11:22;10.27;;;5.77;;
11034;SDS011;5571;48.110;-1.706;2022-11-20T00:13:49;10.27;;;5.03;;
11034;SDS011;5571;48.110;-1.706;2022-11-20T00:16:17;7.53;;;4.87;;
11034;SDS011;5571;48.110;-1.706;2022-11-20T00:18:44;10.90;;;4.90;;
11034;SDS011;5571;48.110;-1.706;2022-11-20T00:21:11;6.83;;;5.23;;
11034;SDS011;5571;48.110;-1.706;2022-11-20T00:23:38;11.93;;;5.83;;
11034;SDS011;5571;48.110;-1.706;2022-11-20T00:26:05;9.00;;;5.27;;
11034;SDS011;5571;48.110;-1.706;2022-11-20T00:28:32;12.20;;;6.13;;
11034;SDS011;5571;48.110;-1.706;2022-11-20T00:31:02;9.77;;;4.80;;
11034;SDS011;5571;48.110;-1.706;2022-11-20T00:33:32;9.77;;;5.27;;
11034;SDS011;5571;48.110;-1.706;2022-11-20T00:35:59;10.23;;;5.13;;
11034;SDS011;5571;48.110;-1.706;2022-11-20T00:38:29;8.57;;;4.90;;
11034;SDS011;5571;48.110;-1.706;2022-11-20T00:40:58;10.27;;;4.70;;
11034;SDS011;5571;48.110;-1.706;2022-11-20T00:43:26;7.10;;;4.70;;
11034;SDS011;5571;48.110;-1.706;2022-11-20T00:48:24;8.47;;;4.70;;
11034;SDS011;5571;48.110;-1.706;2022-11-20T00:50:50;13.03;;;4.23;;
11034;SDS011;5571;48.110;-1.706;2022-11-20T00:53:16;8.67;;;4.30;;
11034;SDS011;5571;48.110;-1.706;2022-11-20T00:55:41;8.43;;;4.83;;
11034;SDS011;5571;48.110;-1.706;2022-11-20T00:58:07;8.33;;;4.13;;
11034;SDS011;5571;48.110;-1.706;2022-11-20T01:00:32;6.90;;;4.47;;
11034;SDS011;5571;48.110;-1.706;2022-11-20T01:02:59;7.27;;;4.40;;
11034;SDS011;5571;48.110;-1.706;2022-11-20T01:05:24;9.00;;;4.40;;
11034;SDS011;5571;48.110;-1.706;2022-11-20T01:07:50;10.73;;;4.23;;
11034;SDS011;5571;48.110;-1.706;2022-11-20T01:10:15;6.43;;;4.00;;
11034;SDS011;5571;48.110;-1.706;2022-11-20T01:12:42;6.13;;;4.03;;
11034;SDS011;5571;48.110;-1.706;2022-11-20T01:15:07;8.77;;;4.20;;
11034;SDS011;5571;48.110;-1.706;2022-11-20T01:17:33;10.13;;;4.37;;
11034;SDS011;5571;48.110;-1.706;2022-11-20T01:19:59;6.60;;;3.90;;
11034;SDS011;5571;48.110;-1.706;2022-11-20T01:22:24;10.43;;;4.30;;
11034;SDS011;5571;48.110;-1.706;2022-11-20T01:24:50;11.50;;;4.30;;
11034;SDS011;5571;48.110;-1.706;2022-11-20T01:27:16;9.20;;;3.90;;
11034;SDS011;5571;48.110;-1.706;2022-11-20T01:29:41;12.73;;;3.70;;
11034;SDS011;5571;48.110;-1.706;2022-11-20T01:32:07;12.20;;;4.20;;
11034;SDS011;5571;48.110;-1.706;2022-11-20T01:34:32;8.53;;;4.20;;
11034;SDS011;5571;48.110;-1.706;2022-11-20T01:36:58;6.23;;;4.07;;
11034;SDS011;5571;48.110;-1.706;2022-11-20T01:39:24;11.07;;;4.30;;
11034;SDS011;5571;48.110;-1.706;2022-11-20T01:41:52;8.07;;;3.80;;
11034;SDS011;5571;48.110;-1.706;2022-11-20T01:44:56;6.60;;;3.80;;
11034;SDS011;5571;48.110;-1.706;2022-11-20T01:47:25;6.47;;;3.37;;
11034;SDS011;5571;48.110;-1.706;2022-11-20T01:50:04;8.03;;;4.10;;
11034;SDS011;5571;48.110;-1.706;2022-11-20T01:52:38;10.97;;;3.97;;
11034;SDS011;5571;48.110;-1.706;2022-11-20T01:55:15;9.47;;;3.70;;
11034;SDS011;5571;48.110;-1.706;2022-11-20T01:57:46;9.00;;;4.00;;
11034;SDS011;5571;48.110;-1.706;2022-11-20T02:00:14;5.93;;;3.50;;
11034;SDS011;5571;48.110;-1.706;2022-11-20T02:02:43;6.77;;;3.50;;
11034;SDS011;5571;48.110;-1.706;2022-11-20T02:05:21;6.43;;;3.00;;
11034;SDS011;5571;48.110;-1.706;2022-11-20T02:07:52;8.30;;;3.60;;
11034;SDS011;5571;48.110;-1.706;2022-11-20T02:10:19;6.80;;;3.30;;
11034;SDS011;5571;48.110;-1.706;2022-11-20T02:12:45;14.33;;;4.03;;
11034;SDS011;5571;48.110;-1.706;2022-11-20T02:15:30;7.70;;;3.30;;
11034;SDS011;5571;48.110;-1.706;2022-11-20T02:17:57;5.60;;;3.37;;
11034;SDS011;5571;48.110;-1.706;2022-11-20T02:20:22;7.00;;;3.37;;
11034;SDS011;5571;48.110;-1.706;2022-11-20T02:22:50;6.07;;;3.40;;
11034;SDS011;5571;48.110;-1.706;2022-11-20T02:25:20;8.27;;;3.33;;
11034;SDS011;5571;48.110;-1.706;2022-11-20T02:27:47;7.57;;;3.40;;
11034;SDS011;5571;48.110;-1.706;2022-11-20T02:30:13;7.93;;;3.27;;
11034;SDS011;5571;48.110;-1.706;2022-11-20T02:32:39;6.30;;;3.43;;
11034;SDS011;5571;48.110;-1.706;2022-11-20T02:35:08;8.37;;;3.17;;
11034;SDS011;5571;48.110;-1.706;2022-11-20T02:37:55;9.00;;;3.83;;
11034;SDS011;5571;48.110;-1.706;2022-11-20T02:40:23;4.17;;;3.10;;
11034;SDS011;5571;48.110;-1.706;2022-11-20T02:42:52;9.50;;;3.30;;
11034;SDS011;5571;48.110;-1.706;2022-11-20T02:45:21;7.20;;;3.40;;
11034;SDS011;5571;48.110;-1.706;2022-11-20T02:47:48;13.33;;;3.70;;
11034;SDS011;5571;48.110;-1.706;2022-11-20T02:50:14;8.80;;;3.27;;
11034;SDS011;5571;48.110;-1.706;2022-11-20T02:52:39;11.13;;;3.30;;
11034;SDS011;5571;48.110;-1.706;2022-11-20T02:55:05;7.50;;;2.77;;
11034;SDS011;5571;48.110;-1.706;2022-11-20T02:57:31;7.17;;;3.17;;
11034;SDS011;5571;48.110;-1.706;2022-11-20T02:59:57;7.17;;;3.10;;
11034;SDS011;5571;48.110;-1.706;2022-11-20T03:02:22;13.40;;;3.17;;
11034;SDS011;5571;48.110;-1.706;2022-11-20T03:04:48;6.53;;;3.03;;
11034;SDS011;5571;48.110;-1.706;2022-11-20T03:07:13;12.43;;;3.67;;
11034;SDS011;5571;48.110;-1.706;2022-11-20T03:09:39;8.23;;;3.30;;
11034;SDS011;5571;48.110;-1.706;2022-11-20T03:12:05;13.87;;;3.87;;
11034;SDS011;5571;48.110;-1.706;2022-11-20T03:14:31;6.87;;;3.53;;
11034;SDS011;5571;48.110;-1.706;2022-11-20T03:16:56;10.20;;;3.43;;
11034;SDS011;5571;48.110;-1.706;2022-11-20T03:19:23;6.17;;;3.70;;
11034;SDS011;5571;48.110;-1.706;2022-11-20T03:21:48;5.17;;;3.70;;
11034;SDS011;5571;48.110;-1.706;2022-11-20T03:24:14;6.93;;;3.50;;
11034;SDS011;5571;48.110;-1.706;2022-11-20T03:26:40;9.70;;;3.70;;
11034;SDS011;5571;48.110;-1.706;2022-11-20T03:29:06;9.07;;;3.63;;
11034;SDS011;5571;48.110;-1.706;2022-11-20T03:31:36;11.27;;;3.87;;
11034;SDS011;5571;48.110;-1.706;2022-11-20T03:34:05;9.53;;;3.60;;
11034;SDS011;5571;48.110;-1.706;2022-11-20T03:36:32;7.03;;;3.40;;
11034;SDS011;5571;48.110;-1.706;2022-11-20T03:38:58;7.53;;;3.70;;
11034;SDS011;5571;48.110;-1.706;2022-11-20T03:41:28;7.67;;;3.83;;
11034;SDS011;5571;48.110;-1.706;2022-11-20T03:43:59;7.07;;;3.70;;
11034;SDS011;5571;48.110;-1.706;2022-11-20T03:46:26;5.90;;;3.83;;
11034;SDS011;5571;48.110;-1.706;2022-11-20T03:48:53;5.80;;;3.67;;
11034;SDS011;5571;48.110;-1.706;2022-11-20T03:51:23;9.67;;;3.93;;
11034;SDS011;5571;48.110;-1.706;2022-11-20T03:53:50;7.93;;;3.40;;
11034;SDS011;5571;48.110;-1.706;2022-11-20T03:56:18;7.27;;;3.47;;
11034;SDS011;5571;48.110;-1.706;2022-11-20T03:58:45;7.90;;;3.70;;
11034;SDS011;5571;48.110;-1.706;2022-11-20T04:03:37;6.73;;;3.67;;
11034;SDS011;5571;48.110;-1.706;2022-11-20T04:06:05;10.17;;;3.67;;
11034;SDS011;5571;48.110;-1.706;2022-11-20T04:08:32;7.53;;;3.40;;
11034;SDS011;5571;48.110;-1.706;2022-11-20T04:13:47;11.30;;;4.00;;
11034;SDS011;5571;48.110;-1.706;2022-11-20T04:16:15;8.93;;;3.83;;
11034;SDS011;5571;48.110;-1.706;2022-11-20T04:18:41;25.17;;;14.40;;
11034;SDS011;5571;48.110;-1.706;2022-11-20T04:21:06;6.33;;;3.97;;
11034;SDS011;5571;48.110;-1.706;2022-11-20T04:23:32;7.73;;;3.90;;
11034;SDS011;5571;48.110;-1.706;2022-11-20T04:26:02;8.97;;;4.03;;
11034;SDS011;5571;48.110;-1.706;2022-11-20T04:28:33;8.87;;;4.23;;
11034;SDS011;5571;48.110;-1.706;2022-11-20T04:31:06;9.23;;;4.20;;
11034;SDS011;5571;48.110;-1.706;2022-11-20T04:33:33;9.00;;;4.23;;
11034;SDS011;5571;48.110;-1.706;2022-11-20T04:36:03;8.17;;;4.37;;
11034;SDS011;5571;48.110;-1.706;2022-11-20T04:38:31;9.03;;;4.10;;
11034;SDS011;5571;48.110;-1.706;2022-11-20T04:41:00;7.87;;;4.80;;
11034;SDS011;5571;48.110;-1.706;2022-11-20T04:43:27;7.47;;;4.40;;
11034;SDS011;5571;48.110;-1.706;2022-11-20T04:45:54;9.53;;;4.80;;
11034;SDS011;5571;48.110;-1.706;2022-11-20T04:48:20;7.70;;;4.60;;
11034;SDS011;5571;48.110;-1.706;2022-11-20T04:50:46;8.97;;;4.93;;
11034;SDS011;5571;48.110;-1.706;2022-11-20T04:53:12;14.33;;;5.00;;
11034;SDS011;5571;48.110;-1.706;2022-11-20T04:55:37;8.40;;;4.83;;
11034;SDS011;5571;48.110;-1.706;2022-11-20T04:58:03;11.77;;;4.80;;
11034;SDS011;5571;48.110;-1.706;2022-11-20T05:00:29;9.80;;;5.90;;
11034;SDS011;5571;48.110;-1.706;2022-11-20T05:02:54;21.90;;;10.73;;
11034;SDS011;5571;48.110;-1.706;2022-11-20T05:05:20;12.33;;;7.13;;
11034;SDS011;5571;48.110;-1.706;2022-11-20T05:07:46;9.47;;;5.37;;
11034;SDS011;5571;48.110;-1.706;2022-11-20T05:10:11;8.40;;;5.27;;
11034;SDS011;5571;48.110;-1.706;2022-11-20T05:12:37;12.67;;;5.60;;
11034;SDS011;5571;48.110;-1.706;2022-11-20T05:15:03;6.07;;;4.93;;
11034;SDS011;5571;48.110;-1.706;2022-11-20T05:17:28;8.70;;;5.53;;
11034;SDS011;5571;48.110;-1.706;2022-11-20T05:19:54;10.80;;;5.57;;
11034;SDS011;5571;48.110;-1.706;2022-11-20T05:22:20;12.23;;;5.37;;
11034;SDS011;5571;48.110;-1.706;2022-11-20T05:24:45;10.57;;;5.77;;
11034;SDS011;5571;48.110;-1.706;2022-11-20T05:27:11;13.10;;;5.20;;
11034;SDS011;5571;48.110;-1.706;2022-11-20T05:29:37;8.83;;;5.40;;
11034;SDS011;5571;48.110;-1.706;2022-11-20T05:32:02;7.03;;;5.60;;
11034;SDS011;5571;48.110;-1.706;2022-11-20T05:34:31;10.47;;;5.87;;
11034;SDS011;5571;48.110;-1.706;2022-11-20T05:36:56;8.10;;;5.80;;
11034;SDS011;5571;48.110;-1.706;2022-11-20T05:39:22;9.97;;;5.43;;
11034;SDS011;5571;48.110;-1.706;2022-11-20T05:41:48;12.67;;;5.93;;
11034;SDS011;5571;48.110;-1.706;2022-11-20T05:44:33;7.07;;;5.93;;
11034;SDS011;5571;48.110;-1.706;2022-11-20T05:46:59;10.43;;;5.70;;
11034;SDS011;5571;48.110;-1.706;2022-11-20T05:49:25;8.80;;;5.57;;
11034;SDS011;5571;48.110;-1.706;2022-11-20T05:51:50;10.67;;;5.60;;
11034;SDS011;5571;48.110;-1.706;2022-11-20T05:54:16;10.67;;;5.80;;
11034;SDS011;5571;48.110;-1.706;2022-11-20T05:56:42;6.53;;;5.30;;
11034;SDS011;5571;48.110;-1.706;2022-11-20T05:59:08;10.13;;;5.13;;
11034;SDS011;5571;48.110;-1.706;2022-11-20T06:01:33;5.67;;;4.80;;
11034;SDS011;5571;48.110;-1.706;2022-11-20T06:04:01;5.27;;;4.40;;
11034;SDS011;5571;48.110;-1.706;2022-11-20T06:06:27;7.87;;;4.87;;
11034;SDS011;5571;48.110;-1.706;2022-11-20T06:08:53;5.07;;;4.40;;
11034;SDS011;5571;48.110;-1.706;2022-11-20T06:11:19;4.60;;;4.20;;
11034;SDS011;5571;48.110;-1.706;2022-11-20T06:13:45;3.70;;;3.37;;
11034;SDS011;5571;48.110;-1.706;2022-11-20T06:16:12;4.73;;;3.10;;
11034;SDS011;5571;48.110;-1.706;2022-11-20T06:18:40;4.90;;;2.60;;
11034;SDS011;5571;48.110;-1.706;2022-11-20T06:21:10;2.60;;;2.40;;
11034;SDS011;5571;48.110;-1.706;2022-11-20T06:23:37;2.93;;;2.70;;
11034;SDS011;5571;48.110;-1.706;2022-11-20T06:26:04;2.83;;;2.60;;
11034;SDS011;5571;48.110;-1.706;2022-11-20T06:28:31;3.40;;;2.40;;
11034;SDS011;5571;48.110;-1.706;2022-11-20T06:30:57;3.00;;;1.90;;
11034;SDS011;5571;48.110;-1.706;2022-11-20T06:33:24;2.53;;;1.73;;
11034;SDS011;5571;48.110;-1.706;2022-11-20T06:35:49;1.80;;;1.70;;
11034;SDS011;5571;48.110;-1.706;2022-11-20T06:38:16;1.77;;;1.67;;
11034;SDS011;5571;48.110;-1.706;2022-11-20T06:40:41;2.03;;;1.93;;
11034;SDS011;5571;48.110;-1.706;2022-11-20T06:43:11;1.77;;;1.67;;
11034;SDS011;5571;48.110;-1.706;2022-11-20T06:45:36;1.80;;;1.70;;
11034;SDS011;5571;48.110;-1.706;2022-11-20T06:48:02;2.60;;;1.83;;
11034;SDS011;5571;48.110;-1.706;2022-11-20T06:50:28;1.90;;;1.80;;
11034;SDS011;5571;48.110;-1.706;2022-11-20T06:52:54;2.13;;;1.90;;
11034;SDS011;5571;48.110;-1.706;2022-11-20T06:55:20;2.10;;;1.90;;
11034;SDS011;5571;48.110;-1.706;2022-11-20T06:57:45;2.00;;;1.90;;
11034;SDS011;5571;48.110;-1.706;2022-11-20T07:00:11;2.63;;;2.43;;
11034;SDS011;5571;48.110;-1.706;2022-11-20T07:02:37;2.70;;;2.50;;
11034;SDS011;5571;48.110;-1.706;2022-11-20T07:05:03;2.30;;;2.20;;
11034;SDS011;5571;48.110;-1.706;2022-11-20T07:07:28;2.73;;;2.53;;
11034;SDS011;5571;48.110;-1.706;2022-11-20T07:09:54;2.70;;;2.50;;
11034;SDS011;5571;48.110;-1.706;2022-11-20T07:12:20;4.13;;;2.77;;
11034;SDS011;5571;48.110;-1.706;2022-11-20T07:14:45;2.73;;;2.53;;
11034;SDS011;5571;48.110;-1.706;2022-11-20T07:17:11;3.20;;;2.90;;
11034;SDS011;5571;48.110;-1.706;2022-11-20T07:19:37;3.03;;;2.73;;
11034;SDS011;5571;48.110;-1.706;2022-11-20T07:22:03;2.80;;;2.60;;
11034;SDS011;5571;48.110;-1.706;2022-11-20T07:24:28;3.10;;;2.90;;
11034;SDS011;5571;48.110;-1.706;2022-11-20T07:26:54;3.40;;;3.10;;
11034;SDS011;5571;48.110;-1.706;2022-11-20T07:29:20;3.23;;;2.97;;
11034;SDS011;5571;48.110;-1.706;2022-11-20T07:31:45;3.33;;;3.03;;
11034;SDS011;5571;48.110;-1.706;2022-11-20T07:34:11;3.40;;;3.10;;
11034;SDS011;5571;48.110;-1.706;2022-11-20T07:36:36;3.53;;;2.90;;
11034;SDS011;5571;48.110;-1.706;2022-11-20T07:39:02;2.80;;;2.60;;
11034;SDS011;5571;48.110;-1.706;2022-11-20T07:41:28;2.90;;;2.60;;
11034;SDS011;5571;48.110;-1.706;2022-11-20T07:43:54;3.57;;;2.43;;
11034;SDS011;5571;48.110;-1.706;2022-11-20T07:46:19;2.43;;;2.23;;
11034;SDS011;5571;48.110;-1.706;2022-11-20T07:48:45;2.47;;;2.20;;
11034;SDS011;5571;48.110;-1.706;2022-11-20T07:51:10;2.67;;;2.30;;
11034;SDS011;5571;48.110;-1.706;2022-11-20T07:53:36;3.10;;;2.60;;
11034;SDS011;5571;48.110;-1.706;2022-11-20T07:56:02;3.10;;;2.83;;
11034;SDS011;5571;48.110;-1.706;2022-11-20T07:58:31;3.47;;;2.73;;
11034;SDS011;5571;48.110;-1.706;2022-11-20T08:00:58;3.07;;;2.77;;
11034;SDS011;5571;48.110;-1.706;2022-11-20T08:03:28;5.43;;;2.60;;
11034;SDS011;5571;48.110;-1.706;2022-11-20T08:05:53;3.30;;;3.00;;
11034;SDS011;5571;48.110;-1.706;2022-11-20T08:08:19;3.80;;;2.63;;
11034;SDS011;5571;48.110;-1.706;2022-11-20T08:10:46;3.00;;;2.80;;
11034;SDS011;5571;48.110;-1.706;2022-11-20T08:13:12;3.50;;;2.80;;
11034;SDS011;5571;48.110;-1.706;2022-11-20T08:15:56;5.17;;;2.83;;
11034;SDS011;5571;48.110;-1.706;2022-11-20T08:18:22;5.23;;;2.70;;
11034;SDS011;5571;48.110;-1.706;2022-11-20T08:20:47;7.17;;;4.40;;
11034;SDS011;5571;48.110;-1.706;2022-11-20T08:23:13;3.73;;;3.40;;
11034;SDS011;5571;48.110;-1.706;2022-11-20T08:25:39;3.20;;;2.90;;
11034;SDS011;5571;48.110;-1.706;2022-11-20T08:28:06;5.23;;;3.37;;
11034;SDS011;5571;48.110;-1.706;2022-11-20T08:30:33;4.83;;;3.47;;
11034;SDS011;5571;48.110;-1.706;2022-11-20T08:33:03;4.50;;;3.17;;
11034;SDS011;5571;48.110;-1.706;2022-11-20T08:35:36;7.17;;;3.40;;
11034;SDS011;5571;48.110;-1.706;2022-11-20T08:38:04;6.33;;;3.37;;
11034;SDS011;5571;48.110;-1.706;2022-11-20T08:40:30;7.33;;;3.37;;
11034;SDS011;5571;48.110;-1.706;2022-11-20T08:42:56;6.63;;;3.20;;
11034;SDS011;5571;48.110;-1.706;2022-11-20T08:45:22;6.60;;;3.37;;
11034;SDS011;5571;48.110;-1.706;2022-11-20T08:47:48;6.43;;;3.13;;
11034;SDS011;5571;48.110;-1.706;2022-11-20T08:50:14;9.23;;;3.00;;
11034;SDS011;5571;48.110;-1.706;2022-11-20T08:52:41;8.17;;;3.20;;
11034;SDS011;5571;48.110;-1.706;2022-11-20T08:55:08;13.17;;;3.80;;
11034;SDS011;5571;48.110;-1.706;2022-11-20T08:57:35;14.40;;;3.57;;
11034;SDS011;5571;48.110;-1.706;2022-11-20T09:00:01;11.67;;;3.33;;
11034;SDS011;5571;48.110;-1.706;2022-11-20T09:02:31;13.30;;;4.33;;
11034;SDS011;5571;48.110;-1.706;2022-11-20T09:04:57;14.93;;;3.40;;
11034;SDS011;5571;48.110;-1.706;2022-11-20T09:07:23;16.87;;;3.77;;
11034;SDS011;5571;48.110;-1.706;2022-11-20T09:09:48;17.73;;;4.50;;
11034;SDS011;5571;48.110;-1.706;2022-11-20T09:12:14;18.57;;;4.07;;
11034;SDS011;5571;48.110;-1.706;2022-11-20T09:14:40;17.07;;;3.73;;
11034;SDS011;5571;48.110;-1.706;2022-11-20T09:17:05;23.83;;;4.00;;
11034;SDS011;5571;48.110;-1.706;2022-11-20T09:19:32;27.70;;;5.43;;
11034;SDS011;5571;48.110;-1.706;2022-11-20T09:21:58;23.93;;;5.07;;
11034;SDS011;5571;48.110;-1.706;2022-11-20T09:24:25;21.00;;;4.60;;
11034;SDS011;5571;48.110;-1.706;2022-11-20T09:26:51;27.27;;;5.07;;
11034;SDS011;5571;48.110;-1.706;2022-11-20T09:29:16;26.07;;;5.30;;
11034;SDS011;5571;48.110;-1.706;2022-11-20T09:31:42;34.13;;;4.70;;
11034;SDS011;5571;48.110;-1.706;2022-11-20T09:34:07;31.53;;;5.17;;
11034;SDS011;5571;48.110;-1.706;2022-11-20T09:36:33;33.47;;;5.03;;
11034;SDS011;5571;48.110;-1.706;2022-11-20T09:38:58;27.77;;;5.77;;
11034;SDS011;5571;48.110;-1.706;2022-11-20T09:41:32;37.13;;;5.33;;
11034;SDS011;5571;48.110;-1.706;2022-11-20T09:45:03;38.30;;;5.73;;
11034;SDS011;5571;48.110;-1.706;2022-11-20T09:53:07;33.47;;;5.97;;
11034;SDS011;5571;48.110;-1.706;2022-11-20T09:55:36;27.00;;;5.60;;
11034;SDS011;5571;48.110;-1.706;2022-11-20T09:58:04;30.37;;;5.53;;
11034;SDS011;5571;48.110;-1.706;2022-11-20T10:00:32;31.23;;;5.37;;
11034;SDS011;5571;48.110;-1.706;2022-11-20T10:03:12;32.50;;;6.53;;
11034;SDS011;5571;48.110;-1.706;2022-11-20T10:05:44;29.20;;;5.63;;
11034;SDS011;5571;48.110;-1.706;2022-11-20T10:08:22;33.27;;;5.80;;
11034;SDS011;5571;48.110;-1.706;2022-11-20T10:13:42;34.23;;;5.70;;
11034;SDS011;5571;48.110;-1.706;2022-11-20T10:16:12;35.93;;;5.97;;
11034;SDS011;5571;48.110;-1.706;2022-11-20T10:19:23;32.10;;;5.97;;
11034;SDS011;5571;48.110;-1.706;2022-11-20T10:30:12;35.67;;;6.40;;
11034;SDS011;5571;48.110;-1.706;2022-11-20T10:32:47;30.53;;;5.97;;
11034;SDS011;5571;48.110;-1.706;2022-11-20T10:35:21;27.97;;;5.77;;
11034;SDS011;5571;48.110;-1.706;2022-11-20T10:37:54;29.93;;;5.70;;
11034;SDS011;5571;48.110;-1.706;2022-11-20T10:40:27;34.37;;;5.80;;
11034;SDS011;5571;48.110;-1.706;2022-11-20T10:43:23;28.00;;;5.63;;
11034;SDS011;5571;48.110;-1.706;2022-11-20T10:45:58;32.83;;;5.97;;
11034;SDS011;5571;48.110;-1.706;2022-11-20T10:48:28;26.97;;;5.47;;
11034;SDS011;5571;48.110;-1.706;2022-11-20T10:53:44;31.87;;;5.50;;
11034;SDS011;5571;48.110;-1.706;2022-11-20T11:01:58;22.77;;;5.13;;
11034;SDS011;5571;48.110;-1.706;2022-11-20T11:04:36;27.87;;;5.97;;
11034;SDS011;5571;48.110;-1.706;2022-11-20T11:09:35;28.97;;;5.77;;
11034;SDS011;5571;48.110;-1.706;2022-11-20T11:12:07;33.50;;;5.73;;
11034;SDS011;5571;48.110;-1.706;2022-11-20T11:22:31;28.03;;;5.10;;
11034;SDS011;5571;48.110;-1.706;2022-11-20T11:24:58;25.97;;;5.37;;
11034;SDS011;5571;48.110;-1.706;2022-11-20T11:27:24;30.73;;;6.30;;
11034;SDS011;5571;48.110;-1.706;2022-11-20T11:29:50;21.57;;;5.20;;
11034;SDS011;5571;48.110;-1.706;2022-11-20T11:32:27;23.40;;;5.47;;
11034;SDS011;5571;48.110;-1.706;2022-11-20T11:35:03;26.73;;;5.30;;
11034;SDS011;5571;48.110;-1.706;2022-11-20T11:37:43;20.47;;;4.90;;
11034;SDS011;5571;48.110;-1.706;2022-11-20T11:40:12;20.73;;;5.27;;
11034;SDS011;5571;48.110;-1.706;2022-11-20T11:42:42;23.30;;;4.93;;
11034;SDS011;5571;48.110;-1.706;2022-11-20T11:45:13;27.27;;;5.13;;
11034;SDS011;5571;48.110;-1.706;2022-11-20T11:55:45;24.83;;;5.47;;
11034;SDS011;5571;48.110;-1.706;2022-11-20T12:01:01;23.13;;;5.03;;
11034;SDS011;5571;48.110;-1.706;2022-11-20T12:03:36;18.07;;;4.93;;
11034;SDS011;5571;48.110;-1.706;2022-11-20T12:08:40;20.50;;;4.33;;
11034;SDS011;5571;48.110;-1.706;2022-11-20T12:16:36;16.07;;;4.30;;
11034;SDS011;5571;48.110;-1.706;2022-11-20T12:19:06;14.67;;;4.07;;
11034;SDS011;5571;48.110;-1.706;2022-11-20T12:30:11;22.63;;;4.77;;
11034;SDS011;5571;48.110;-1.706;2022-11-20T12:35:32;20.90;;;4.63;;
11034;SDS011;5571;48.110;-1.706;2022-11-20T12:50:18;22.83;;;4.83;;
11034;SDS011;5571;48.110;-1.706;2022-11-20T12:53:04;20.57;;;5.00;;
11034;SDS011;5571;48.110;-1.706;2022-11-20T12:55:47;24.07;;;5.17;;
11034;SDS011;5571;48.110;-1.706;2022-11-20T13:01:00;23.73;;;5.30;;
11034;SDS011;5571;48.110;-1.706;2022-11-20T13:07:10;23.27;;;5.13;;
11034;SDS011;5571;48.110;-1.706;2022-11-20T13:09:40;23.73;;;5.30;;
11034;SDS011;5571;48.110;-1.706;2022-11-20T13:12:34;24.70;;;5.13;;
11034;SDS011;5571;48.110;-1.706;2022-11-20T13:17:55;27.33;;;4.70;;
11034;SDS011;5571;48.110;-1.706;2022-11-20T13:20:23;17.03;;;4.00;;
11034;SDS011;5571;48.110;-1.706;2022-11-20T13:22:50;21.57;;;4.80;;
11034;SDS011;5571;48.110;-1.706;2022-11-20T13:27:53;17.23;;;4.33;;
11034;SDS011;5571;48.110;-1.706;2022-11-20T13:30:23;19.27;;;4.07;;
11034;SDS011;5571;48.110;-1.706;2022-11-20T13:35:26;15.17;;;4.00;;
11034;SDS011;5571;48.110;-1.706;2022-11-20T13:38:12;15.93;;;4.37;;
11034;SDS011;5571;48.110;-1.706;2022-11-20T13:40:55;19.27;;;4.20;;
11034;SDS011;5571;48.110;-1.706;2022-11-20T13:43:39;16.37;;;4.10;;
11034;SDS011;5571;48.110;-1.706;2022-11-20T13:46:07;18.60;;;4.33;;
11034;SDS011;5571;48.110;-1.706;2022-11-20T13:48:44;17.10;;;3.83;;
11034;SDS011;5571;48.110;-1.706;2022-11-20T14:01:58;21.27;;;4.40;;
11034;SDS011;5571;48.110;-1.706;2022-11-20T14:04:35;18.23;;;4.43;;
11034;SDS011;5571;48.110;-1.706;2022-11-20T14:07:07;21.67;;;4.63;;
11034;SDS011;5571;48.110;-1.706;2022-11-20T14:09:34;20.07;;;4.30;;
11034;SDS011;5571;48.110;-1.706;2022-11-20T14:12:01;19.27;;;4.50;;
11034;SDS011;5571;48.110;-1.706;2022-11-20T14:14:28;17.47;;;4.27;;
11034;SDS011;5571;48.110;-1.706;2022-11-20T14:17:08;16.10;;;4.20;;
11034;SDS011;5571;48.110;-1.706;2022-11-20T14:19:41;14.37;;;3.63;;
11034;SDS011;5571;48.110;-1.706;2022-11-20T14:22:25;23.67;;;4.67;;
11034;SDS011;5571;48.110;-1.706;2022-11-20T14:27:41;21.97;;;3.93;;
11034;SDS011;5571;48.110;-1.706;2022-11-20T14:30:22;19.20;;;4.20;;
11034;SDS011;5571;48.110;-1.706;2022-11-20T14:32:49;19.87;;;4.10;;
11034;SDS011;5571;48.110;-1.706;2022-11-20T14:36:03;18.03;;;4.27;;
11034;SDS011;5571;48.110;-1.706;2022-11-20T14:38:15;17.93;;;4.30;;
11034;SDS011;5571;48.110;-1.706;2022-11-20T14:40:43;24.37;;;4.67;;
11034;SDS011;5571;48.110;-1.706;2022-11-20T14:43:20;21.37;;;4.47;;
11034;SDS011;5571;48.110;-1.706;2022-11-20T14:48:29;22.57;;;5.27;;
11034;SDS011;5571;48.110;-1.706;2022-11-20T14:51:10;29.10;;;4.90;;
11034;SDS011;5571;48.110;-1.706;2022-11-20T14:53:47;16.43;;;5.20;;
11034;SDS011;5571;48.110;-1.706;2022-11-20T14:56:13;18.90;;;4.97;;
11034;SDS011;5571;48.110;-1.706;2022-11-20T14:58:54;19.80;;;5.17;;
11034;SDS011;5571;48.110;-1.706;2022-11-20T15:01:25;17.90;;;4.80;;
11034;SDS011;5571;48.110;-1.706;2022-11-20T15:03:58;15.77;;;4.70;;
11034;SDS011;5571;48.110;-1.706;2022-11-20T15:06:30;17.30;;;4.23;;
11034;SDS011;5571;48.110;-1.706;2022-11-20T15:08:56;24.07;;;4.70;;
11034;SDS011;5571;48.110;-1.706;2022-11-20T15:11:25;21.83;;;4.67;;
11034;SDS011;5571;48.110;-1.706;2022-11-20T15:13:54;18.77;;;5.23;;
11034;SDS011;5571;48.110;-1.706;2022-11-20T15:16:21;22.57;;;4.73;;
11034;SDS011;5571;48.110;-1.706;2022-11-20T15:18:48;20.03;;;4.80;;
11034;SDS011;5571;48.110;-1.706;2022-11-20T15:21:15;14.97;;;4.07;;
11034;SDS011;5571;48.110;-1.706;2022-11-20T15:23:42;18.70;;;4.27;;
11034;SDS011;5571;48.110;-1.706;2022-11-20T15:26:08;17.57;;;4.13;;
11034;SDS011;5571;48.110;-1.706;2022-11-20T15:28:37;21.93;;;4.47;;
11034;SDS011;5571;48.110;-1.706;2022-11-20T15:31:05;21.17;;;4.60;;
11034;SDS011;5571;48.110;-1.706;2022-11-20T15:33:31;19.07;;;4.20;;
11034;SDS011;5571;48.110;-1.706;2022-11-20T15:35:58;22.47;;;4.57;;
11034;SDS011;5571;48.110;-1.706;2022-11-20T15:38:24;18.30;;;5.07;;
11034;SDS011;5571;48.110;-1.706;2022-11-20T15:40:50;23.37;;;5.40;;
11034;SDS011;5571;48.110;-1.706;2022-11-20T15:43:16;22.00;;;4.80;;
11034;SDS011;5571;48.110;-1.706;2022-11-20T15:45:46;21.70;;;5.03;;
11034;SDS011;5571;48.110;-1.706;2022-11-20T15:48:18;20.63;;;5.30;;
11034;SDS011;5571;48.110;-1.706;2022-11-20T15:50:54;21.87;;;5.30;;
11034;SDS011;5571;48.110;-1.706;2022-11-20T15:53:28;23.33;;;5.03;;
11034;SDS011;5571;48.110;-1.706;2022-11-20T15:55:54;20.73;;;4.67;;
11034;SDS011;5571;48.110;-1.706;2022-11-20T15:58:20;22.73;;;4.80;;
11034;SDS011;5571;48.110;-1.706;2022-11-20T16:00:47;24.60;;;4.47;;
11034;SDS011;5571;48.110;-1.706;2022-11-20T16:03:14;25.03;;;5.50;;
11034;SDS011;5571;48.110;-1.706;2022-11-20T16:05:41;20.53;;;4.77;;
11034;SDS011;5571;48.110;-1.706;2022-11-20T16:08:07;18.27;;;4.63;;
11034;SDS011;5571;48.110;-1.706;2022-11-20T16:10:32;26.37;;;5.57;;
11034;SDS011;5571;48.110;-1.706;2022-11-20T16:12:58;23.93;;;4.73;;
11034;SDS011;5571;48.110;-1.706;2022-11-20T16:15:43;24.33;;;4.73;;
11034;SDS011;5571;48.110;-1.706;2022-11-20T16:18:16;25.03;;;5.03;;
11034;SDS011;5571;48.110;-1.706;2022-11-20T16:20:44;22.20;;;4.47;;
11034;SDS011;5571;48.110;-1.706;2022-11-20T16:23:14;21.03;;;4.57;;
11034;SDS011;5571;48.110;-1.706;2022-11-20T16:25:41;21.97;;;4.50;;
11034;SDS011;5571;48.110;-1.706;2022-11-20T16:28:07;13.10;;;3.87;;
11034;SDS011;5571;48.110;-1.706;2022-11-20T16:30:33;25.00;;;5.13;;
11034;SDS011;5571;48.110;-1.706;2022-11-20T16:32:59;20.70;;;4.60;;
11034;SDS011;5571;48.110;-1.706;2022-11-20T16:35:29;15.40;;;4.13;;
11034;SDS011;5571;48.110;-1.706;2022-11-20T16:37:55;17.67;;;4.37;;
11034;SDS011;5571;48.110;-1.706;2022-11-20T16:40:22;16.63;;;4.30;;
11034;SDS011;5571;48.110;-1.706;2022-11-20T16:42:48;17.80;;;4.57;;
11034;SDS011;5571;48.110;-1.706;2022-11-20T16:45:14;15.03;;;4.00;;
11034;SDS011;5571;48.110;-1.706;2022-11-20T16:47:40;21.27;;;4.27;;